sensor_id;sensor_type;location;lat;lon;timestamp;pressure;altitude;pressure_sealevel;temperature;humidity
7474;BME280;3778;42.572;23.426;2023-02-15T00:00:08;95570.63;;;-146.70;69.69
7474;BME280;3778;42.572;23.426;2023-02-15T00:02:35;95558.13;;;-146.70;70.05
7474;BME280;3778;42.572;23.426;2023-02-15T00:05:02;95553.94;;;-146.70;70.52
7474;BME280;3778;42.572;23.426;2023-02-15T00:07:29;95535.19;;;-146.70;70.69
7474;BME280;3778;42.572;23.426;2023-02-15T00:09:55;95626.91;;;-146.70;70.80
7474;BME280;3778;42.572;23.426;2023-02-15T00:12:22;95570.63;;;-146.70;70.94
7474;BME280;3778;42.572;23.426;2023-02-15T00:14:49;95553.94;;;-146.70;70.79
7474;BME280;3778;42.572;23.426;2023-02-15T00:17:17;95595.63;;;-146.70;70.57
7474;BME280;3778;42.572;23.426;2023-02-15T00:19:43;95572.72;;;-146.70;69.54
7474;BME280;3778;42.572;23.426;2023-02-15T00:22:10;95591.47;;;-146.70;69.02
7474;BME280;3778;42.572;23.426;2023-02-15T00:24:37;95564.38;;;-146.70;68.93
7474;BME280;3778;42.572;23.426;2023-02-15T00:27:03;95599.81;;;-146.70;69.03
7474;BME280;3778;42.572;23.426;2023-02-15T00:29:30;95608.16;;;-146.70;69.11
7474;BME280;3778;42.572;23.426;2023-02-15T00:31:57;95591.47;;;-146.70;68.68
7474;BME280;3778;42.572;23.426;2023-02-15T00:34:27;95558.13;;;-146.70;68.50
7474;BME280;3778;42.572;23.426;2023-02-15T00:36:54;95574.78;;;-146.70;68.50
7474;BME280;3778;42.572;23.426;2023-02-15T00:39:20;95564.38;;;-146.70;68.75
7474;BME280;3778;42.572;23.426;2023-02-15T00:41:49;95595.63;;;-146.70;69.13
7474;BME280;3778;42.572;23.426;2023-02-15T00:44:15;95608.16;;;-146.70;69.72
7474;BME280;3778;42.572;23.426;2023-02-15T00:46:42;95578.97;;;-146.70;69.28
7474;BME280;3778;42.572;23.426;2023-02-15T00:49:09;95595.63;;;-146.70;69.57
7474;BME280;3778;42.572;23.426;2023-02-15T00:51:37;95637.31;;;-146.70;70.34
7474;BME280;3778;42.572;23.426;2023-02-15T00:54:04;95647.75;;;-146.70;70.97
7474;BME280;3778;42.572;23.426;2023-02-15T00:56:31;95635.25;;;-146.70;71.71
7474;BME280;3778;42.572;23.426;2023-02-15T00:58:58;95583.13;;;-146.70;72.03
7474;BME280;3778;42.572;23.426;2023-02-15T01:01:25;95618.56;;;-146.70;72.13
7474;BME280;3778;42.572;23.426;2023-02-15T01:03:52;95645.66;;;-146.70;72.13
7474;BME280;3778;42.572;23.426;2023-02-15T01:06:19;95599.81;;;-146.70;70.08
7474;BME280;3778;42.572;23.426;2023-02-15T01:08:47;95647.75;;;-146.70;70.57
7474;BME280;3778;42.572;23.426;2023-02-15T01:11:16;95595.63;;;-146.70;72.64
7474;BME280;3778;42.572;23.426;2023-02-15T01:13:48;95645.66;;;-146.70;72.39
7474;BME280;3778;42.572;23.426;2023-02-15T01:16:15;95643.56;;;-146.70;72.91
7474;BME280;3778;42.572;23.426;2023-02-15T01:18:42;95595.63;;;-146.70;72.84
7474;BME280;3778;42.572;23.426;2023-02-15T01:21:11;95654.00;;;-146.70;72.45
7474;BME280;3778;42.572;23.426;2023-02-15T01:23:39;95666.50;;;-146.70;73.10
7474;BME280;3778;42.572;23.426;2023-02-15T01:26:07;95591.47;;;-146.70;72.52
7474;BME280;3778;42.572;23.426;2023-02-15T01:28:35;95649.84;;;-146.70;73.15
7474;BME280;3778;42.572;23.426;2023-02-15T01:31:05;95589.38;;;-146.70;73.98
7474;BME280;3778;42.572;23.426;2023-02-15T01:33:32;95610.22;;;-146.70;74.17
7474;BME280;3778;42.572;23.426;2023-02-15T01:35:58;95633.16;;;-146.70;74.28
7474;BME280;3778;42.572;23.426;2023-02-15T01:38:25;95637.31;;;-146.70;74.02
7474;BME280;3778;42.572;23.426;2023-02-15T01:40:53;95633.16;;;-146.70;74.13
7474;BME280;3778;42.572;23.426;2023-02-15T01:43:42;95566.44;;;-146.70;74.08
7474;BME280;3778;42.572;23.426;2023-02-15T01:46:11;95595.63;;;-146.70;73.74
7474;BME280;3778;42.572;23.426;2023-02-15T01:48:41;95591.47;;;-146.70;73.90
7474;BME280;3778;42.572;23.426;2023-02-15T01:51:10;95553.94;;;-146.70;73.64
7474;BME280;3778;42.572;23.426;2023-02-15T01:53:42;95558.13;;;-146.70;73.64
7474;BME280;3778;42.572;23.426;2023-02-15T01:56:13;95581.03;;;-146.70;73.57
7474;BME280;3778;42.572;23.426;2023-02-15T01:58:43;95595.63;;;-146.70;73.68
7474;BME280;3778;42.572;23.426;2023-02-15T02:01:10;95601.88;;;-146.70;73.74
7474;BME280;3778;42.572;23.426;2023-02-15T02:03:43;95612.31;;;-146.70;73.84
7474;BME280;3778;42.572;23.426;2023-02-15T02:06:14;95603.97;;;-146.70;73.69
7474;BME280;3778;42.572;23.426;2023-02-15T02:08:42;95608.16;;;-146.70;73.87
7474;BME280;3778;42.572;23.426;2023-02-15T02:11:10;95539.34;;;-146.70;73.97
7474;BME280;3778;42.572;23.426;2023-02-15T02:13:38;95574.78;;;-146.70;74.14
7474;BME280;3778;42.572;23.426;2023-02-15T02:16:12;95574.78;;;-146.70;73.97
7474;BME280;3778;42.572;23.426;2023-02-15T02:18:46;95624.81;;;-146.70;73.59
7474;BME280;3778;42.572;23.426;2023-02-15T02:22:00;95564.38;;;-146.70;74.10
7474;BME280;3778;42.572;23.426;2023-02-15T02:25:10;95603.97;;;-146.70;74.10
7474;BME280;3778;42.572;23.426;2023-02-15T02:27:41;95616.47;;;-146.70;74.35
7474;BME280;3778;42.572;23.426;2023-02-15T02:30:49;95585.22;;;-146.70;74.06
7474;BME280;3778;42.572;23.426;2023-02-15T02:33:50;95574.78;;;-146.70;73.96
7474;BME280;3778;42.572;23.426;2023-02-15T02:36:25;95612.31;;;-146.70;74.14
7474;BME280;3778;42.572;23.426;2023-02-15T02:39:07;95599.81;;;-146.70;74.34
7474;BME280;3778;42.572;23.426;2023-02-15T02:41:42;95574.78;;;-146.70;74.36
7474;BME280;3778;42.572;23.426;2023-02-15T02:44:16;95603.97;;;-146.70;74.36
7474;BME280;3778;42.572;23.426;2023-02-15T02:46:50;95629.00;;;-146.70;74.25
7474;BME280;3778;42.572;23.426;2023-02-15T02:49:32;95572.72;;;-146.70;74.31
7474;BME280;3778;42.572;23.426;2023-02-15T02:52:00;95641.50;;;-146.70;72.75
7474;BME280;3778;42.572;23.426;2023-02-15T02:54:27;95612.31;;;-146.70;71.95
7474;BME280;3778;42.572;23.426;2023-02-15T02:56:54;95626.91;;;-146.70;73.77
7474;BME280;3778;42.572;23.426;2023-02-15T02:59:27;95616.47;;;-146.70;72.17
7474;BME280;3778;42.572;23.426;2023-02-15T03:02:01;95633.16;;;-146.70;72.08
7474;BME280;3778;42.572;23.426;2023-02-15T03:04:32;95608.16;;;-146.70;73.92
7474;BME280;3778;42.572;23.426;2023-02-15T03:07:03;95597.72;;;-146.70;74.51
7474;BME280;3778;42.572;23.426;2023-02-15T03:09:36;95599.81;;;-146.70;75.30
7474;BME280;3778;42.572;23.426;2023-02-15T03:12:08;95620.66;;;-146.70;75.45
7474;BME280;3778;42.572;23.426;2023-02-15T03:14:37;95601.88;;;-146.70;75.07
7474;BME280;3778;42.572;23.426;2023-02-15T03:17:07;95612.31;;;-146.70;74.92
7474;BME280;3778;42.572;23.426;2023-02-15T03:19:38;95614.41;;;-146.70;72.86
7474;BME280;3778;42.572;23.426;2023-02-15T03:22:08;95639.41;;;-146.70;74.43
7474;BME280;3778;42.572;23.426;2023-02-15T03:24:41;95629.00;;;-146.70;74.19
7474;BME280;3778;42.572;23.426;2023-02-15T03:27:15;95589.38;;;-146.70;75.28
7474;BME280;3778;42.572;23.426;2023-02-15T03:29:45;95599.81;;;-146.70;75.20
7474;BME280;3778;42.572;23.426;2023-02-15T03:32:14;95637.31;;;-146.70;74.99
7474;BME280;3778;42.572;23.426;2023-02-15T03:34:43;95556.03;;;-146.70;74.78
7474;BME280;3778;42.572;23.426;2023-02-15T03:37:13;95574.78;;;-146.70;74.63
7474;BME280;3778;42.572;23.426;2023-02-15T03:39:45;95587.31;;;-146.70;74.69
7474;BME280;3778;42.572;23.426;2023-02-15T03:42:17;95568.53;;;-146.70;73.31
7474;BME280;3778;42.572;23.426;2023-02-15T03:44:54;95616.47;;;-146.70;71.98
7474;BME280;3778;42.572;23.426;2023-02-15T03:47:26;95618.56;;;-146.70;74.43
7474;BME280;3778;42.572;23.426;2023-02-15T03:49:57;95570.63;;;-146.70;73.97
7474;BME280;3778;42.572;23.426;2023-02-15T03:52:27;95595.63;;;-146.70;74.47
7474;BME280;3778;42.572;23.426;2023-02-15T03:54:55;95641.50;;;-146.70;74.48
7474;BME280;3778;42.572;23.426;2023-02-15T03:57:24;95581.03;;;-146.70;74.35
7474;BME280;3778;42.572;23.426;2023-02-15T04:00:13;95612.31;;;-146.70;73.34
7474;BME280;3778;42.572;23.426;2023-02-15T04:03:22;95601.88;;;-146.70;70.67
7474;BME280;3778;42.572;23.426;2023-02-15T04:05:51;95649.84;;;-146.70;71.25
7474;BME280;3778;42.572;23.426;2023-02-15T04:08:18;95616.47;;;-146.70;73.64
7474;BME280;3778;42.572;23.426;2023-02-15T04:10:45;95606.06;;;-146.70;71.56
7474;BME280;3778;42.572;23.426;2023-02-15T04:13:23;95666.50;;;-146.70;70.62
7474;BME280;3778;42.572;23.426;2023-02-15T04:15:50;95695.69;;;-146.70;70.54
7474;BME280;3778;42.572;23.426;2023-02-15T04:18:28;95666.50;;;-146.70;71.85
7474;BME280;3778;42.572;23.426;2023-02-15T04:21:14;95566.44;;;-146.70;75.38
7474;BME280;3778;42.572;23.426;2023-02-15T04:23:58;95649.84;;;-146.70;71.83
7474;BME280;3778;42.572;23.426;2023-02-15T04:26:42;95647.75;;;-146.70;73.36
7474;BME280;3778;42.572;23.426;2023-02-15T04:29:09;95639.41;;;-146.70;75.02
7474;BME280;3778;42.572;23.426;2023-02-15T04:31:35;95612.31;;;-146.70;75.60
7474;BME280;3778;42.572;23.426;2023-02-15T04:34:02;95610.22;;;-146.70;75.46
7474;BME280;3778;42.572;23.426;2023-02-15T04:36:30;95637.31;;;-146.70;75.56
7474;BME280;3778;42.572;23.426;2023-02-15T04:38:57;95620.66;;;-146.70;75.35
7474;BME280;3778;42.572;23.426;2023-02-15T04:41:23;95601.88;;;-146.70;75.27
7474;BME280;3778;42.572;23.426;2023-02-15T04:43:50;95618.56;;;-146.70;74.36
7474;BME280;3778;42.572;23.426;2023-02-15T04:46:17;95608.16;;;-146.70;74.55
7474;BME280;3778;42.572;23.426;2023-02-15T04:48:44;95560.19;;;-146.70;73.94
7474;BME280;3778;42.572;23.426;2023-02-15T04:51:10;95645.66;;;-146.70;71.33
7474;BME280;3778;42.572;23.426;2023-02-15T04:53:38;95591.47;;;-146.70;72.32
7474;BME280;3778;42.572;23.426;2023-02-15T04:56:05;95612.31;;;-146.70;71.33
7474;BME280;3778;42.572;23.426;2023-02-15T04:58:32;95641.50;;;-146.70;74.10
7474;BME280;3778;42.572;23.426;2023-02-15T05:00:58;95606.06;;;-146.70;71.72
7474;BME280;3778;42.572;23.426;2023-02-15T05:03:25;95666.50;;;-146.70;71.36
7474;BME280;3778;42.572;23.426;2023-02-15T05:05:52;95622.72;;;-146.70;71.59
7474;BME280;3778;42.572;23.426;2023-02-15T05:08:19;95658.16;;;-146.70;74.58
7474;BME280;3778;42.572;23.426;2023-02-15T05:10:48;95556.03;;;-146.70;76.24
7474;BME280;3778;42.572;23.426;2023-02-15T05:13:15;95608.16;;;-146.70;75.76
7474;BME280;3778;42.572;23.426;2023-02-15T05:15:46;95572.72;;;-146.70;76.50
7474;BME280;3778;42.572;23.426;2023-02-15T05:18:13;95564.38;;;-146.70;76.37
7474;BME280;3778;42.572;23.426;2023-02-15T05:20:40;95597.72;;;-146.70;71.98
7474;BME280;3778;42.572;23.426;2023-02-15T05:23:07;95691.53;;;-146.70;70.26
7474;BME280;3778;42.572;23.426;2023-02-15T05:25:33;95587.31;;;-146.70;72.52
7474;BME280;3778;42.572;23.426;2023-02-15T05:28:19;95622.72;;;-146.70;73.64
7474;BME280;3778;42.572;23.426;2023-02-15T05:30:46;95649.84;;;-146.70;73.93
7474;BME280;3778;42.572;23.426;2023-02-15T05:33:13;95618.56;;;-146.70;75.33
7474;BME280;3778;42.572;23.426;2023-02-15T05:35:40;95643.56;;;-146.70;75.35
7474;BME280;3778;42.572;23.426;2023-02-15T05:38:06;95614.41;;;-146.70;75.11
7474;BME280;3778;42.572;23.426;2023-02-15T05:40:33;95618.56;;;-146.70;73.64
7474;BME280;3778;42.572;23.426;2023-02-15T05:43:00;95635.25;;;-146.70;68.93
7474;BME280;3778;42.572;23.426;2023-02-15T05:45:28;95699.84;;;-146.70;69.40
7474;BME280;3778;42.572;23.426;2023-02-15T05:47:55;95668.59;;;-146.70;72.88
7474;BME280;3778;42.572;23.426;2023-02-15T05:50:23;95656.09;;;-146.70;71.70
7474;BME280;3778;42.572;23.426;2023-02-15T05:52:50;95616.47;;;-146.70;72.51
7474;BME280;3778;42.572;23.426;2023-02-15T05:55:17;95629.00;;;-146.70;72.00
7474;BME280;3778;42.572;23.426;2023-02-15T05:57:44;95660.25;;;-146.70;74.79
7474;BME280;3778;42.572;23.426;2023-02-15T06:00:12;95633.16;;;-146.70;73.43
7474;BME280;3778;42.572;23.426;2023-02-15T06:02:40;95622.72;;;-146.70;69.29
7474;BME280;3778;42.572;23.426;2023-02-15T06:05:07;95672.75;;;-146.70;72.93
7474;BME280;3778;42.572;23.426;2023-02-15T06:07:34;95631.06;;;-146.70;70.08
7474;BME280;3778;42.572;23.426;2023-02-15T06:10:02;95645.66;;;-146.70;69.93
7474;BME280;3778;42.572;23.426;2023-02-15T06:12:28;95624.81;;;-146.70;69.99
7474;BME280;3778;42.572;23.426;2023-02-15T06:14:55;95624.81;;;-146.70;69.38
7474;BME280;3778;42.572;23.426;2023-02-15T06:17:22;95668.59;;;-146.70;69.01
7474;BME280;3778;42.572;23.426;2023-02-15T06:19:50;95633.16;;;-146.70;69.16
7474;BME280;3778;42.572;23.426;2023-02-15T06:22:17;95629.00;;;-146.70;71.92
7474;BME280;3778;42.572;23.426;2023-02-15T06:24:43;95645.66;;;-146.70;70.16
7474;BME280;3778;42.572;23.426;2023-02-15T06:27:10;95626.91;;;-146.70;70.64
7474;BME280;3778;42.572;23.426;2023-02-15T06:29:37;95633.16;;;-146.70;69.50
7474;BME280;3778;42.572;23.426;2023-02-15T06:32:04;95570.63;;;-146.70;70.99
7474;BME280;3778;42.572;23.426;2023-02-15T06:34:31;95633.16;;;-146.70;71.85
7474;BME280;3778;42.572;23.426;2023-02-15T06:36:59;95645.66;;;-146.70;71.26
7474;BME280;3778;42.572;23.426;2023-02-15T06:39:26;95616.47;;;-146.70;68.23
7474;BME280;3778;42.572;23.426;2023-02-15T06:41:53;95570.63;;;-146.70;68.39
7474;BME280;3778;42.572;23.426;2023-02-15T06:44:19;95689.44;;;-146.70;68.63
7474;BME280;3778;42.572;23.426;2023-02-15T06:46:46;95626.91;;;-146.70;68.38
7474;BME280;3778;42.572;23.426;2023-02-15T06:49:13;95585.22;;;-146.70;68.84
7474;BME280;3778;42.572;23.426;2023-02-15T06:51:39;95643.56;;;-146.70;69.54
7474;BME280;3778;42.572;23.426;2023-02-15T06:54:08;95591.47;;;-146.70;69.53
7474;BME280;3778;42.572;23.426;2023-02-15T06:56:34;95620.66;;;-146.70;70.45
7474;BME280;3778;42.572;23.426;2023-02-15T06:59:02;95691.53;;;-146.70;70.72
7474;BME280;3778;42.572;23.426;2023-02-15T07:01:28;95568.53;;;-146.70;71.31
7474;BME280;3778;42.572;23.426;2023-02-15T07:03:55;95535.19;;;-146.70;70.76
7474;BME280;3778;42.572;23.426;2023-02-15T07:06:22;95568.53;;;-146.70;70.09
7474;BME280;3778;42.572;23.426;2023-02-15T07:08:48;95549.78;;;-146.70;69.98
7474;BME280;3778;42.572;23.426;2023-02-15T07:11:16;95553.94;;;-146.70;68.62
7474;BME280;3778;42.572;23.426;2023-02-15T07:14:01;95522.69;;;-146.70;69.77
7474;BME280;3778;42.572;23.426;2023-02-15T07:16:27;95526.84;;;-146.70;69.08
7474;BME280;3778;42.572;23.426;2023-02-15T07:18:54;95522.69;;;-146.70;69.96
7474;BME280;3778;42.572;23.426;2023-02-15T07:21:21;95501.84;;;-146.70;70.39
7474;BME280;3778;42.572;23.426;2023-02-15T07:23:48;95497.66;;;-146.70;70.32
7474;BME280;3778;42.572;23.426;2023-02-15T07:26:14;95522.69;;;-146.70;70.13
7474;BME280;3778;42.572;23.426;2023-02-15T07:28:42;95514.34;;;-146.70;69.85
7474;BME280;3778;42.572;23.426;2023-02-15T07:31:09;95574.78;;;-146.70;69.38
7474;BME280;3778;42.572;23.426;2023-02-15T07:33:36;95545.59;;;-146.70;69.39
7474;BME280;3778;42.572;23.426;2023-02-15T07:36:03;95483.06;;;-146.70;68.96
7474;BME280;3778;42.572;23.426;2023-02-15T07:38:32;95514.34;;;-146.70;68.72
7474;BME280;3778;42.572;23.426;2023-02-15T07:41:00;95495.59;;;-146.70;68.06
7474;BME280;3778;42.572;23.426;2023-02-15T07:43:27;95516.44;;;-146.70;68.01
7474;BME280;3778;42.572;23.426;2023-02-15T07:45:58;95537.28;;;-146.70;67.52
7474;BME280;3778;42.572;23.426;2023-02-15T07:48:25;95524.75;;;-146.70;67.40
7474;BME280;3778;42.572;23.426;2023-02-15T07:50:52;95470.56;;;-146.70;67.80
7474;BME280;3778;42.572;23.426;2023-02-15T07:53:19;95476.81;;;-146.70;67.49
7474;BME280;3778;42.572;23.426;2023-02-15T07:55:45;95508.09;;;-146.70;67.10
7474;BME280;3778;42.572;23.426;2023-02-15T07:58:12;95499.75;;;-146.70;67.20
7474;BME280;3778;42.572;23.426;2023-02-15T08:00:39;95476.81;;;-146.70;66.79
7474;BME280;3778;42.572;23.426;2023-02-15T08:03:22;95481.00;;;-146.70;66.60
7474;BME280;3778;42.572;23.426;2023-02-15T08:05:56;95466.41;;;-146.70;65.81
7474;BME280;3778;42.572;23.426;2023-02-15T08:08:23;95458.06;;;-146.70;65.75
7474;BME280;3778;42.572;23.426;2023-02-15T08:11:00;95491.41;;;-146.70;65.04
7474;BME280;3778;42.572;23.426;2023-02-15T08:13:46;95460.16;;;-146.70;64.86
7474;BME280;3778;42.572;23.426;2023-02-15T08:16:20;95483.06;;;-146.70;64.51
7474;BME280;3778;42.572;23.426;2023-02-15T08:18:48;95483.06;;;-146.70;64.71
7474;BME280;3778;42.572;23.426;2023-02-15T08:21:15;95414.28;;;-146.70;64.33
7474;BME280;3778;42.572;23.426;2023-02-15T08:23:41;95455.97;;;-146.70;63.76
7474;BME280;3778;42.572;23.426;2023-02-15T08:26:08;95464.31;;;-146.70;63.80
7474;BME280;3778;42.572;23.426;2023-02-15T08:28:35;95447.63;;;-146.70;63.86
7474;BME280;3778;42.572;23.426;2023-02-15T08:31:05;95481.00;;;-146.70;63.54
7474;BME280;3778;42.572;23.426;2023-02-15T08:33:33;95414.28;;;-146.70;63.47
7474;BME280;3778;42.572;23.426;2023-02-15T08:36:04;95428.88;;;-146.70;63.72
7474;BME280;3778;42.572;23.426;2023-02-15T08:38:31;95441.38;;;-146.70;63.18
7474;BME280;3778;42.572;23.426;2023-02-15T08:40:58;95443.47;;;-146.70;62.98
7474;BME280;3778;42.572;23.426;2023-02-15T08:43:34;95472.66;;;-146.70;63.63
7474;BME280;3778;42.572;23.426;2023-02-15T08:46:01;95445.56;;;-146.70;63.63
7474;BME280;3778;42.572;23.426;2023-02-15T08:48:27;95476.81;;;-146.70;62.94
7474;BME280;3778;42.572;23.426;2023-02-15T08:50:54;95420.53;;;-146.70;62.93
7474;BME280;3778;42.572;23.426;2023-02-15T08:53:22;95428.88;;;-146.70;62.56
7474;BME280;3778;42.572;23.426;2023-02-15T08:55:55;95393.44;;;-146.70;62.11
7474;BME280;3778;42.572;23.426;2023-02-15T08:58:22;95453.91;;;-146.70;62.26
7474;BME280;3778;42.572;23.426;2023-02-15T09:00:48;95412.22;;;-146.70;62.29
7474;BME280;3778;42.572;23.426;2023-02-15T09:03:15;95447.63;;;-146.70;62.56
7474;BME280;3778;42.572;23.426;2023-02-15T09:05:42;95443.47;;;-146.70;62.54
7474;BME280;3778;42.572;23.426;2023-02-15T09:08:09;95424.72;;;-146.70;62.41
7474;BME280;3778;42.572;23.426;2023-02-15T09:10:37;95470.56;;;-146.70;62.38
7474;BME280;3778;42.572;23.426;2023-02-15T09:13:03;95420.53;;;-146.70;61.84
7474;BME280;3778;42.572;23.426;2023-02-15T09:15:30;95387.19;;;-146.70;61.48
7474;BME280;3778;42.572;23.426;2023-02-15T09:17:57;95416.38;;;-146.70;61.60
7474;BME280;3778;42.572;23.426;2023-02-15T09:20:24;95387.19;;;-146.70;61.86
7474;BME280;3778;42.572;23.426;2023-02-15T09:22:51;95316.31;;;-146.70;60.23
7474;BME280;3778;42.572;23.426;2023-02-15T09:25:19;95428.88;;;-146.70;60.52
7474;BME280;3778;42.572;23.426;2023-02-15T09:27:47;95445.56;;;-146.70;61.16
7474;BME280;3778;42.572;23.426;2023-02-15T09:30:14;95347.59;;;-146.70;61.63
7474;BME280;3778;42.572;23.426;2023-02-15T09:32:41;95378.84;;;-146.70;61.94
7474;BME280;3778;42.572;23.426;2023-02-15T09:35:08;95372.59;;;-146.70;61.48
7474;BME280;3778;42.572;23.426;2023-02-15T09:37:34;95403.88;;;-146.70;61.76
7474;BME280;3778;42.572;23.426;2023-02-15T09:40:01;95437.22;;;-146.70;61.99
7474;BME280;3778;42.572;23.426;2023-02-15T09:42:40;95387.19;;;-146.70;61.97
7474;BME280;3778;42.572;23.426;2023-02-15T09:48:22;95405.94;;;-146.70;61.65
7474;BME280;3778;42.572;23.426;2023-02-15T09:51:04;95420.53;;;-146.70;60.91
7474;BME280;3778;42.572;23.426;2023-02-15T09:53:45;95408.03;;;-146.70;61.26
7474;BME280;3778;42.572;23.426;2023-02-15T09:56:19;95339.25;;;-146.70;60.22
7474;BME280;3778;42.572;23.426;2023-02-15T09:58:55;95324.66;;;-146.70;59.87
7474;BME280;3778;42.572;23.426;2023-02-15T10:01:31;95324.66;;;-146.70;60.18
7474;BME280;3778;42.572;23.426;2023-02-15T10:04:17;95403.88;;;-146.70;60.03
7474;BME280;3778;42.572;23.426;2023-02-15T10:06:53;95299.66;;;-146.70;59.77
7474;BME280;3778;42.572;23.426;2023-02-15T10:09:40;95389.28;;;-146.70;60.00
7474;BME280;3778;42.572;23.426;2023-02-15T10:12:24;95370.53;;;-146.70;59.89
7474;BME280;3778;42.572;23.426;2023-02-15T10:15:20;95330.91;;;-146.70;60.66
7474;BME280;3778;42.572;23.426;2023-02-15T10:18:18;95370.53;;;-146.70;59.99
7474;BME280;3778;42.572;23.426;2023-02-15T10:20:56;95326.75;;;-146.70;60.43
7474;BME280;3778;42.572;23.426;2023-02-15T10:23:39;95282.97;;;-146.70;60.30
7474;BME280;3778;42.572;23.426;2023-02-15T10:26:15;95341.34;;;-146.70;59.69
7474;BME280;3778;42.572;23.426;2023-02-15T10:28:46;95249.63;;;-146.70;59.31
7474;BME280;3778;42.572;23.426;2023-02-15T10:31:23;95341.34;;;-146.70;59.12
7474;BME280;3778;42.572;23.426;2023-02-15T10:34:01;95274.63;;;-146.70;58.27
7474;BME280;3778;42.572;23.426;2023-02-15T10:36:40;95303.81;;;-146.70;57.28
7474;BME280;3778;42.572;23.426;2023-02-15T10:39:22;95293.41;;;-146.70;57.12
7474;BME280;3778;42.572;23.426;2023-02-15T10:41:58;95368.44;;;-146.70;58.64
7474;BME280;3778;42.572;23.426;2023-02-15T10:44:41;95353.84;;;-146.70;58.91
7474;BME280;3778;42.572;23.426;2023-02-15T10:47:35;95305.91;;;-146.70;58.68
7474;BME280;3778;42.572;23.426;2023-02-15T10:50:24;95310.06;;;-146.70;58.49
7474;BME280;3778;42.572;23.426;2023-02-15T10:53:18;95297.56;;;-146.70;58.09
7474;BME280;3778;42.572;23.426;2023-02-15T10:55:53;95416.38;;;-146.70;57.43
7474;BME280;3778;42.572;23.426;2023-02-15T10:58:31;95257.97;;;-146.70;57.30
7474;BME280;3778;42.572;23.426;2023-02-15T11:01:09;95345.50;;;-146.70;56.87
7474;BME280;3778;42.572;23.426;2023-02-15T11:03:55;95278.81;;;-146.70;57.53
7474;BME280;3778;42.572;23.426;2023-02-15T11:06:34;95276.72;;;-146.70;56.65
7474;BME280;3778;42.572;23.426;2023-02-15T11:09:05;95222.53;;;-146.70;56.88
7474;BME280;3778;42.572;23.426;2023-02-15T11:11:37;95255.88;;;-146.70;56.30
7474;BME280;3778;42.572;23.426;2023-02-15T11:14:14;95264.22;;;-146.70;56.42
7474;BME280;3778;42.572;23.426;2023-02-15T11:16:46;95203.78;;;-146.70;56.03
7474;BME280;3778;42.572;23.426;2023-02-15T11:19:19;95228.78;;;-146.70;55.80
7474;BME280;3778;42.572;23.426;2023-02-15T11:21:53;95216.28;;;-146.70;55.66
7474;BME280;3778;42.572;23.426;2023-02-15T11:24:21;95224.63;;;-146.70;55.97
7474;BME280;3778;42.572;23.426;2023-02-15T11:26:56;95222.53;;;-146.70;55.23
7474;BME280;3778;42.572;23.426;2023-02-15T11:29:28;95239.22;;;-146.70;56.37
7474;BME280;3778;42.572;23.426;2023-02-15T11:32:03;95255.88;;;-146.70;55.18
7474;BME280;3778;42.572;23.426;2023-02-15T11:34:46;95224.63;;;-146.70;54.99
7474;BME280;3778;42.572;23.426;2023-02-15T11:37:20;95214.19;;;-146.70;55.31
7474;BME280;3778;42.572;23.426;2023-02-15T11:39:50;95189.19;;;-146.70;55.25
7474;BME280;3778;42.572;23.426;2023-02-15T11:42:21;95174.59;;;-146.70;54.53
7474;BME280;3778;42.572;23.426;2023-02-15T11:44:56;95160.00;;;-146.70;53.92
7474;BME280;3778;42.572;23.426;2023-02-15T11:47:25;95180.84;;;-146.70;54.28
7474;BME280;3778;42.572;23.426;2023-02-15T11:49:52;95243.38;;;-146.70;54.40
7474;BME280;3778;42.572;23.426;2023-02-15T11:52:20;95260.06;;;-146.70;55.35
7474;BME280;3778;42.572;23.426;2023-02-15T11:54:49;95214.19;;;-146.70;55.72
7474;BME280;3778;42.572;23.426;2023-02-15T11:57:22;95162.09;;;-146.70;54.49
7474;BME280;3778;42.572;23.426;2023-02-15T11:59:51;95151.66;;;-146.70;54.02
7474;BME280;3778;42.572;23.426;2023-02-15T12:02:21;95178.75;;;-146.70;54.05
7474;BME280;3778;42.572;23.426;2023-02-15T12:04:51;95103.72;;;-146.70;54.04
7474;BME280;3778;42.572;23.426;2023-02-15T12:07:25;95166.25;;;-146.70;53.77
7474;BME280;3778;42.572;23.426;2023-02-15T12:10:00;95153.75;;;-146.70;53.40
7474;BME280;3778;42.572;23.426;2023-02-15T12:12:31;95116.25;;;-146.70;53.29
7474;BME280;3778;42.572;23.426;2023-02-15T12:14:59;95126.66;;;-146.70;53.06
7474;BME280;3778;42.572;23.426;2023-02-15T12:17:28;95168.34;;;-146.70;53.94
7474;BME280;3778;42.572;23.426;2023-02-15T12:19:57;95153.75;;;-146.70;53.68
7474;BME280;3778;42.572;23.426;2023-02-15T12:22:29;95091.22;;;-146.70;53.08
7474;BME280;3778;42.572;23.426;2023-02-15T12:24:59;95051.63;;;-146.70;52.40
7474;BME280;3778;42.572;23.426;2023-02-15T12:27:28;95162.09;;;-146.70;52.65
7474;BME280;3778;42.572;23.426;2023-02-15T12:29:58;95114.16;;;-146.70;52.48
7474;BME280;3778;42.572;23.426;2023-02-15T12:32:28;95064.13;;;-146.70;51.24
7474;BME280;3778;42.572;23.426;2023-02-15T12:35:01;95093.31;;;-146.70;50.47
7474;BME280;3778;42.572;23.426;2023-02-15T12:37:34;95041.22;;;-146.70;50.18
7474;BME280;3778;42.572;23.426;2023-02-15T12:40:18;95016.19;;;-146.70;49.85
7474;BME280;3778;42.572;23.426;2023-02-15T12:42:46;95037.03;;;-146.70;49.66
7474;BME280;3778;42.572;23.426;2023-02-15T12:45:24;95041.22;;;-146.70;49.78
7474;BME280;3778;42.572;23.426;2023-02-15T12:48:15;94962.00;;;-146.70;49.23
7474;BME280;3778;42.572;23.426;2023-02-15T12:50:43;95012.03;;;-146.70;49.51
7474;BME280;3778;42.572;23.426;2023-02-15T12:53:16;94918.25;;;-146.70;48.75
7474;BME280;3778;42.572;23.426;2023-02-15T12:55:53;94886.97;;;-146.70;47.50
7474;BME280;3778;42.572;23.426;2023-02-15T12:58:21;94828.63;;;-146.70;45.57
7474;BME280;3778;42.572;23.426;2023-02-15T13:01:02;94772.34;;;-146.70;46.03
7474;BME280;3778;42.572;23.426;2023-02-15T13:03:30;94728.59;;;-146.70;45.56
7474;BME280;3778;42.572;23.426;2023-02-15T13:05:57;94747.34;;;-146.70;44.44
7474;BME280;3778;42.572;23.426;2023-02-15T13:08:30;94795.28;;;-146.70;45.62
7474;BME280;3778;42.572;23.426;2023-02-15T13:11:00;94666.06;;;-146.70;44.00
7474;BME280;3778;42.572;23.426;2023-02-15T13:13:31;94651.47;;;-146.70;43.74